sensor_id;sensor_type;location;lat;lon;timestamp;temperature;humidity
8563;DHT22;16392;52.508;13.468;2023-03-23T00:01:34;12.50;1.00
8563;DHT22;16392;52.508;13.468;2023-03-23T00:04:02;12.50;1.00
8563;DHT22;16392;52.508;13.468;2023-03-23T00:06:30;12.40;56.70
8563;DHT22;16392;52.508;13.468;2023-03-23T00:08:58;12.40;99.90
8563;DHT22;16392;52.508;13.468;2023-03-23T00:11:27;12.40;99.90
8563;DHT22;16392;52.508;13.468;2023-03-23T00:13:55;12.40;99.90
8563;DHT22;16392;52.508;13.468;2023-03-23T00:16:27;12.30;99.90
8563;DHT22;16392;52.508;13.468;2023-03-23T00:18:56;12.30;1.00
8563;DHT22;16392;52.508;13.468;2023-03-23T00:21:23;12.30;1.00
8563;DHT22;16392;52.508;13.468;2023-03-23T00:23:59;12.20;1.00
8563;DHT22;16392;52.508;13.468;2023-03-23T00:26:26;12.20;9.60
8563;DHT22;16392;52.508;13.468;2023-03-23T00:28:54;12.10;99.90
8563;DHT22;16392;52.508;13.468;2023-03-23T00:31:21;12.10;1.00
8563;DHT22;16392;52.508;13.468;2023-03-23T00:33:48;12.10;99.90
8563;DHT22;16392;52.508;13.468;2023-03-23T00:36:14;12.10;99.90
8563;DHT22;16392;52.508;13.468;2023-03-23T00:38:43;12.10;99.90
8563;DHT22;16392;52.508;13.468;2023-03-23T00:41:13;12.10;99.90
8563;DHT22;16392;52.508;13.468;2023-03-23T00:43:40;12.00;99.90
8563;DHT22;16392;52.508;13.468;2023-03-23T00:46:07;12.10;99.90
8563;DHT22;16392;52.508;13.468;2023-03-23T00:48:35;12.10;18.90
8563;DHT22;16392;52.508;13.468;2023-03-23T00:51:02;12.10;1.00
8563;DHT22;16392;52.508;13.468;2023-03-23T00:53:31;12.10;1.00
8563;DHT22;16392;52.508;13.468;2023-03-23T00:55:57;12.10;1.00
8563;DHT22;16392;52.508;13.468;2023-03-23T00:58:25;12.10;1.00
8563;DHT22;16392;52.508;13.468;2023-03-23T01:00:53;12.00;1.00
8563;DHT22;16392;52.508;13.468;2023-03-23T01:03:20;11.90;1.00
8563;DHT22;16392;52.508;13.468;2023-03-23T01:05:46;11.90;1.00
8563;DHT22;16392;52.508;13.468;2023-03-23T01:08:13;11.80;99.90
8563;DHT22;16392;52.508;13.468;2023-03-23T01:10:39;11.90;99.90
8563;DHT22;16392;52.508;13.468;2023-03-23T01:13:06;11.80;99.90
8563;DHT22;16392;52.508;13.468;2023-03-23T01:15:34;11.80;1.00
8563;DHT22;16392;52.508;13.468;2023-03-23T01:18:01;11.80;1.00
8563;DHT22;16392;52.508;13.468;2023-03-23T01:20:28;11.80;1.00
8563;DHT22;16392;52.508;13.468;2023-03-23T01:22:56;11.80;99.90
8563;DHT22;16392;52.508;13.468;2023-03-23T01:25:26;11.80;1.00
8563;DHT22;16392;52.508;13.468;2023-03-23T01:27:52;11.70;1.00
8563;DHT22;16392;52.508;13.468;2023-03-23T01:30:19;11.70;1.00
8563;DHT22;16392;52.508;13.468;2023-03-23T01:32:47;11.60;1.00
8563;DHT22;16392;52.508;13.468;2023-03-23T01:35:14;11.60;99.90
8563;DHT22;16392;52.508;13.468;2023-03-23T01:37:40;11.60;99.90
8563;DHT22;16392;52.508;13.468;2023-03-23T01:40:08;11.60;1.00
8563;DHT22;16392;52.508;13.468;2023-03-23T01:42:36;11.50;99.90
8563;DHT22;16392;52.508;13.468;2023-03-23T01:47:52;11.50;99.90
8563;DHT22;16392;52.508;13.468;2023-03-23T01:50:21;11.50;93.70
8563;DHT22;16392;52.508;13.468;2023-03-23T01:52:49;11.50;99.90
8563;DHT22;16392;52.508;13.468;2023-03-23T01:55:17;11.40;99.90
8563;DHT22;16392;52.508;13.468;2023-03-23T01:57:44;11.50;99.90
8563;DHT22;16392;52.508;13.468;2023-03-23T02:00:11;11.50;1.00
8563;DHT22;16392;52.508;13.468;2023-03-23T02:02:40;11.60;1.00
8563;DHT22;16392;52.508;13.468;2023-03-23T02:05:10;11.60;1.00
8563;DHT22;16392;52.508;13.468;2023-03-23T02:07:37;11.60;1.00
8563;DHT22;16392;52.508;13.468;2023-03-23T02:10:04;11.70;1.00
8563;DHT22;16392;52.508;13.468;2023-03-23T02:12:31;11.80;99.90
8563;DHT22;16392;52.508;13.468;2023-03-23T02:14:58;11.80;99.90
8563;DHT22;16392;52.508;13.468;2023-03-23T02:17:25;11.80;1.00
8563;DHT22;16392;52.508;13.468;2023-03-23T02:20:00;11.80;1.00
8563;DHT22;16392;52.508;13.468;2023-03-23T02:22:43;11.70;99.90
8563;DHT22;16392;52.508;13.468;2023-03-23T02:25:24;11.70;99.90
8563;DHT22;16392;52.508;13.468;2023-03-23T02:28:04;11.70;1.00
8563;DHT22;16392;52.508;13.468;2023-03-23T02:30:37;11.80;1.00
8563;DHT22;16392;52.508;13.468;2023-03-23T02:33:25;11.80;99.90
8563;DHT22;16392;52.508;13.468;2023-03-23T02:35:55;11.80;99.90
8563;DHT22;16392;52.508;13.468;2023-03-23T02:38:24;11.90;1.00
8563;DHT22;16392;52.508;13.468;2023-03-23T02:40:53;12.00;1.00
8563;DHT22;16392;52.508;13.468;2023-03-23T02:43:22;12.00;99.90
8563;DHT22;16392;52.508;13.468;2023-03-23T02:45:48;11.90;99.90
8563;DHT22;16392;52.508;13.468;2023-03-23T02:48:16;12.00;1.00
8563;DHT22;16392;52.508;13.468;2023-03-23T02:50:47;12.00;99.90
8563;DHT22;16392;52.508;13.468;2023-03-23T02:53:15;12.00;1.00
8563;DHT22;16392;52.508;13.468;2023-03-23T02:55:43;11.90;1.00
8563;DHT22;16392;52.508;13.468;2023-03-23T02:58:10;11.90;99.90
8563;DHT22;16392;52.508;13.468;2023-03-23T03:00:37;11.80;1.00
8563;DHT22;16392;52.508;13.468;2023-03-23T03:03:05;11.80;1.00
8563;DHT22;16392;52.508;13.468;2023-03-23T03:05:35;11.80;1.00
8563;DHT22;16392;52.508;13.468;2023-03-23T03:08:08;11.80;1.00
8563;DHT22;16392;52.508;13.468;2023-03-23T03:10:41;11.80;1.00
8563;DHT22;16392;52.508;13.468;2023-03-23T03:13:10;11.80;99.90
8563;DHT22;16392;52.508;13.468;2023-03-23T03:15:40;11.80;99.90
8563;DHT22;16392;52.508;13.468;2023-03-23T03:18:09;11.90;99.90
8563;DHT22;16392;52.508;13.468;2023-03-23T03:20:40;11.90;99.90
8563;DHT22;16392;52.508;13.468;2023-03-23T03:23:08;11.90;1.00
8563;DHT22;16392;52.508;13.468;2023-03-23T03:25:38;11.90;1.00
8563;DHT22;16392;52.508;13.468;2023-03-23T03:28:06;11.90;1.00
8563;DHT22;16392;52.508;13.468;2023-03-23T03:30:32;11.90;99.90
8563;DHT22;16392;52.508;13.468;2023-03-23T03:33:00;11.90;1.00
8563;DHT22;16392;52.508;13.468;2023-03-23T03:35:28;11.90;1.00
8563;DHT22;16392;52.508;13.468;2023-03-23T03:37:57;11.90;99.90
8563;DHT22;16392;52.508;13.468;2023-03-23T03:40:27;11.90;1.00
8563;DHT22;16392;52.508;13.468;2023-03-23T03:42:53;11.90;99.90
8563;DHT22;16392;52.508;13.468;2023-03-23T03:45:20;11.80;1.00
8563;DHT22;16392;52.508;13.468;2023-03-23T03:47:46;11.90;99.90
8563;DHT22;16392;52.508;13.468;2023-03-23T03:50:13;11.80;1.00
8563;DHT22;16392;52.508;13.468;2023-03-23T03:52:39;11.80;99.90
8563;DHT22;16392;52.508;13.468;2023-03-23T03:55:07;11.70;99.90
8563;DHT22;16392;52.508;13.468;2023-03-23T03:57:35;11.70;1.00
8563;DHT22;16392;52.508;13.468;2023-03-23T04:00:02;11.60;1.00
8563;DHT22;16392;52.508;13.468;2023-03-23T04:02:38;11.50;1.00
8563;DHT22;16392;52.508;13.468;2023-03-23T04:05:06;11.50;1.00
8563;DHT22;16392;52.508;13.468;2023-03-23T04:07:34;11.40;15.70
8563;DHT22;16392;52.508;13.468;2023-03-23T04:10:03;11.40;99.90
8563;DHT22;16392;52.508;13.468;2023-03-23T04:12:30;11.30;99.90
8563;DHT22;16392;52.508;13.468;2023-03-23T04:14:58;11.30;99.90
8563;DHT22;16392;52.508;13.468;2023-03-23T04:17:25;11.30;99.90
8563;DHT22;16392;52.508;13.468;2023-03-23T04:19:52;11.20;99.90
8563;DHT22;16392;52.508;13.468;2023-03-23T04:22:22;11.20;99.90
8563;DHT22;16392;52.508;13.468;2023-03-23T04:24:50;11.30;99.90
8563;DHT22;16392;52.508;13.468;2023-03-23T04:27:17;11.30;99.90
8563;DHT22;16392;52.508;13.468;2023-03-23T04:29:43;11.30;99.90
8563;DHT22;16392;52.508;13.468;2023-03-23T04:32:15;11.30;99.90
8563;DHT22;16392;52.508;13.468;2023-03-23T04:34:42;11.40;99.90
8563;DHT22;16392;52.508;13.468;2023-03-23T04:37:09;11.40;99.90
8563;DHT22;16392;52.508;13.468;2023-03-23T04:39:36;11.40;99.90
8563;DHT22;16392;52.508;13.468;2023-03-23T04:42:05;11.40;99.90
8563;DHT22;16392;52.508;13.468;2023-03-23T04:44:31;11.40;99.90
8563;DHT22;16392;52.508;13.468;2023-03-23T04:47:00;11.40;99.90
8563;DHT22;16392;52.508;13.468;2023-03-23T04:49:27;11.30;99.90
8563;DHT22;16392;52.508;13.468;2023-03-23T04:51:55;11.30;99.90
8563;DHT22;16392;52.508;13.468;2023-03-23T04:54:21;11.30;99.90
8563;DHT22;16392;52.508;13.468;2023-03-23T04:56:49;11.20;50.40
8563;DHT22;16392;52.508;13.468;2023-03-23T04:59:16;11.20;27.80
8563;DHT22;16392;52.508;13.468;2023-03-23T05:01:42;11.20;2.40
8563;DHT22;16392;52.508;13.468;2023-03-23T05:04:11;11.20;40.30
8563;DHT22;16392;52.508;13.468;2023-03-23T05:06:43;11.20;1.00
8563;DHT22;16392;52.508;13.468;2023-03-23T05:09:10;11.20;1.00
8563;DHT22;16392;52.508;13.468;2023-03-23T05:11:37;11.20;67.90
8563;DHT22;16392;52.508;13.468;2023-03-23T05:14:03;11.20;77.00
8563;DHT22;16392;52.508;13.468;2023-03-23T05:16:30;11.20;99.90
8563;DHT22;16392;52.508;13.468;2023-03-23T05:18:57;11.10;99.90
8563;DHT22;16392;52.508;13.468;2023-03-23T05:21:24;11.00;99.90
8563;DHT22;16392;52.508;13.468;2023-03-23T05:23:52;11.00;99.90
8563;DHT22;16392;52.508;13.468;2023-03-23T05:26:20;10.90;99.90
8563;DHT22;16392;52.508;13.468;2023-03-23T05:28:46;10.90;99.90
8563;DHT22;16392;52.508;13.468;2023-03-23T05:31:13;10.80;99.90
8563;DHT22;16392;52.508;13.468;2023-03-23T05:33:39;10.80;99.90
8563;DHT22;16392;52.508;13.468;2023-03-23T05:36:06;10.90;99.90
8563;DHT22;16392;52.508;13.468;2023-03-23T05:38:35;10.90;99.90
8563;DHT22;16392;52.508;13.468;2023-03-23T05:41:07;10.80;99.90
8563;DHT22;16392;52.508;13.468;2023-03-23T05:43:33;10.80;99.90
8563;DHT22;16392;52.508;13.468;2023-03-23T05:45:59;10.80;99.90
8563;DHT22;16392;52.508;13.468;2023-03-23T05:48:26;10.80;99.90
8563;DHT22;16392;52.508;13.468;2023-03-23T05:50:53;10.80;99.90
8563;DHT22;16392;52.508;13.468;2023-03-23T05:53:20;10.90;99.90
8563;DHT22;16392;52.508;13.468;2023-03-23T05:55:46;10.80;99.90
8563;DHT22;16392;52.508;13.468;2023-03-23T05:58:14;10.90;99.90
8563;DHT22;16392;52.508;13.468;2023-03-23T06:00:41;10.90;99.90
8563;DHT22;16392;52.508;13.468;2023-03-23T06:03:08;10.90;99.90
8563;DHT22;16392;52.508;13.468;2023-03-23T06:05:34;10.90;99.90
8563;DHT22;16392;52.508;13.468;2023-03-23T06:08:01;10.90;99.90
8563;DHT22;16392;52.508;13.468;2023-03-23T06:10:27;10.80;99.90
8563;DHT22;16392;52.508;13.468;2023-03-23T06:12:56;10.90;99.90
8563;DHT22;16392;52.508;13.468;2023-03-23T06:15:23;10.80;99.90
8563;DHT22;16392;52.508;13.468;2023-03-23T06:17:54;10.80;99.90
8563;DHT22;16392;52.508;13.468;2023-03-23T06:20:21;10.80;99.90
8563;DHT22;16392;52.508;13.468;2023-03-23T06:22:49;10.80;99.90
8563;DHT22;16392;52.508;13.468;2023-03-23T06:25:17;10.80;99.90
8563;DHT22;16392;52.508;13.468;2023-03-23T06:27:44;10.80;99.90
8563;DHT22;16392;52.508;13.468;2023-03-23T06:30:11;10.80;99.90
8563;DHT22;16392;52.508;13.468;2023-03-23T06:32:41;10.80;99.90
8563;DHT22;16392;52.508;13.468;2023-03-23T06:35:09;10.80;99.90
8563;DHT22;16392;52.508;13.468;2023-03-23T06:37:37;10.80;99.90
8563;DHT22;16392;52.508;13.468;2023-03-23T06:40:04;10.80;99.90
8563;DHT22;16392;52.508;13.468;2023-03-23T06:42:32;10.90;99.90
8563;DHT22;16392;52.508;13.468;2023-03-23T06:44:58;10.90;99.90
8563;DHT22;16392;52.508;13.468;2023-03-23T06:47:26;10.80;99.90
8563;DHT22;16392;52.508;13.468;2023-03-23T06:49:54;10.90;99.90
8563;DHT22;16392;52.508;13.468;2023-03-23T06:52:21;10.90;99.90
8563;DHT22;16392;52.508;13.468;2023-03-23T06:54:48;10.90;99.90
8563;DHT22;16392;52.508;13.468;2023-03-23T06:57:15;11.00;99.90
8563;DHT22;16392;52.508;13.468;2023-03-23T06:59:42;11.00;99.90
8563;DHT22;16392;52.508;13.468;2023-03-23T07:02:09;11.00;99.90
8563;DHT22;16392;52.508;13.468;2023-03-23T07:04:36;11.00;99.90
8563;DHT22;16392;52.508;13.468;2023-03-23T07:07:04;11.00;99.90
8563;DHT22;16392;52.508;13.468;2023-03-23T07:09:31;11.00;99.90
8563;DHT22;16392;52.508;13.468;2023-03-23T07:11:58;11.00;99.90
8563;DHT22;16392;52.508;13.468;2023-03-23T07:14:24;11.10;99.90
8563;DHT22;16392;52.508;13.468;2023-03-23T07:16:51;11.10;99.90
8563;DHT22;16392;52.508;13.468;2023-03-23T07:19:18;11.00;99.90
8563;DHT22;16392;52.508;13.468;2023-03-23T07:21:45;11.00;99.90
8563;DHT22;16392;52.508;13.468;2023-03-23T07:24:13;11.00;99.90
8563;DHT22;16392;52.508;13.468;2023-03-23T07:26:40;11.10;99.90
8563;DHT22;16392;52.508;13.468;2023-03-23T07:29:07;11.10;99.90
8563;DHT22;16392;52.508;13.468;2023-03-23T07:31:33;11.10;99.90
8563;DHT22;16392;52.508;13.468;2023-03-23T07:34:00;11.10;99.90
8563;DHT22;16392;52.508;13.468;2023-03-23T07:36:28;11.10;99.90
8563;DHT22;16392;52.508;13.468;2023-03-23T07:38:54;11.10;99.90
8563;DHT22;16392;52.508;13.468;2023-03-23T07:41:23;11.10;99.90
8563;DHT22;16392;52.508;13.468;2023-03-23T07:43:49;11.20;99.90
8563;DHT22;16392;52.508;13.468;2023-03-23T07:46:16;11.10;99.90
8563;DHT22;16392;52.508;13.468;2023-03-23T07:48:42;11.20;99.90
8563;DHT22;16392;52.508;13.468;2023-03-23T07:51:09;11.20;99.90
8563;DHT22;16392;52.508;13.468;2023-03-23T07:53:35;11.30;99.90
8563;DHT22;16392;52.508;13.468;2023-03-23T07:56:02;11.30;99.90
8563;DHT22;16392;52.508;13.468;2023-03-23T07:58:30;11.30;99.90
8563;DHT22;16392;52.508;13.468;2023-03-23T08:00:57;11.30;99.90
8563;DHT22;16392;52.508;13.468;2023-03-23T08:03:24;11.40;99.90
8563;DHT22;16392;52.508;13.468;2023-03-23T08:05:51;11.40;99.90
8563;DHT22;16392;52.508;13.468;2023-03-23T08:08:17;11.40;99.90
8563;DHT22;16392;52.508;13.468;2023-03-23T08:10:44;11.40;99.90
8563;DHT22;16392;52.508;13.468;2023-03-23T08:13:11;11.40;99.90
8563;DHT22;16392;52.508;13.468;2023-03-23T08:15:39;11.50;99.90
8563;DHT22;16392;52.508;13.468;2023-03-23T08:18:05;11.60;99.90
8563;DHT22;16392;52.508;13.468;2023-03-23T08:20:32;11.60;99.90
8563;DHT22;16392;52.508;13.468;2023-03-23T08:22:58;11.70;99.90
8563;DHT22;16392;52.508;13.468;2023-03-23T08:25:26;11.80;99.90
8563;DHT22;16392;52.508;13.468;2023-03-23T08:27:52;11.70;99.90
8563;DHT22;16392;52.508;13.468;2023-03-23T08:30:20;11.70;99.90
8563;DHT22;16392;52.508;13.468;2023-03-23T08:32:49;11.70;99.90
8563;DHT22;16392;52.508;13.468;2023-03-23T08:35:15;11.80;99.90
8563;DHT22;16392;52.508;13.468;2023-03-23T08:37:42;11.80;99.90
8563;DHT22;16392;52.508;13.468;2023-03-23T08:40:09;11.80;99.90
8563;DHT22;16392;52.508;13.468;2023-03-23T08:42:36;11.90;99.90
8563;DHT22;16392;52.508;13.468;2023-03-23T08:45:04;11.90;99.90
8563;DHT22;16392;52.508;13.468;2023-03-23T08:47:31;11.90;99.90
8563;DHT22;16392;52.508;13.468;2023-03-23T08:49:58;11.90;99.90
8563;DHT22;16392;52.508;13.468;2023-03-23T08:52:25;11.90;99.90
8563;DHT22;16392;52.508;13.468;2023-03-23T08:54:51;12.00;99.90
8563;DHT22;16392;52.508;13.468;2023-03-23T08:57:18;12.20;99.90
8563;DHT22;16392;52.508;13.468;2023-03-23T08:59:44;12.40;99.90
8563;DHT22;16392;52.508;13.468;2023-03-23T09:02:11;12.50;99.90
8563;DHT22;16392;52.508;13.468;2023-03-23T09:04:38;12.50;99.90
8563;DHT22;16392;52.508;13.468;2023-03-23T09:07:05;12.40;99.90
8563;DHT22;16392;52.508;13.468;2023-03-23T09:09:32;12.60;99.90
8563;DHT22;16392;52.508;13.468;2023-03-23T09:11:59;12.90;99.90
8563;DHT22;16392;52.508;13.468;2023-03-23T09:14:26;13.30;99.90
8563;DHT22;16392;52.508;13.468;2023-03-23T09:16:52;13.30;99.90
8563;DHT22;16392;52.508;13.468;2023-03-23T09:19:19;13.10;99.90
8563;DHT22;16392;52.508;13.468;2023-03-23T09:21:46;13.10;99.90
8563;DHT22;16392;52.508;13.468;2023-03-23T09:24:14;13.10;99.90
8563;DHT22;16392;52.508;13.468;2023-03-23T09:26:40;13.20;99.90
8563;DHT22;16392;52.508;13.468;2023-03-23T09:29:07;13.10;99.90
8563;DHT22;16392;52.508;13.468;2023-03-23T09:31:33;13.10;99.90
8563;DHT22;16392;52.508;13.468;2023-03-23T09:34:02;13.10;99.90
8563;DHT22;16392;52.508;13.468;2023-03-23T09:36:29;13.10;99.90
8563;DHT22;16392;52.508;13.468;2023-03-23T09:38:57;13.30;99.90
8563;DHT22;16392;52.508;13.468;2023-03-23T09:41:36;13.40;99.90
8563;DHT22;16392;52.508;13.468;2023-03-23T09:44:06;13.60;99.90
8563;DHT22;16392;52.508;13.468;2023-03-23T09:46:42;13.80;99.90
8563;DHT22;16392;52.508;13.468;2023-03-23T09:49:11;14.20;99.90
8563;DHT22;16392;52.508;13.468;2023-03-23T09:51:42;14.50;99.90
8563;DHT22;16392;52.508;13.468;2023-03-23T09:54:11;14.40;99.90
8563;DHT22;16392;52.508;13.468;2023-03-23T09:56:41;14.60;1.00
8563;DHT22;16392;52.508;13.468;2023-03-23T09:59:10;14.60;99.90
8563;DHT22;16392;52.508;13.468;2023-03-23T10:01:39;14.80;99.90
8563;DHT22;16392;52.508;13.468;2023-03-23T10:04:10;15.00;79.30
8563;DHT22;16392;52.508;13.468;2023-03-23T10:06:40;14.70;99.90
8563;DHT22;16392;52.508;13.468;2023-03-23T10:09:08;14.90;99.90
8563;DHT22;16392;52.508;13.468;2023-03-23T10:11:43;14.70;99.90
8563;DHT22;16392;52.508;13.468;2023-03-23T10:14:15;14.60;64.20
8563;DHT22;16392;52.508;13.468;2023-03-23T10:16:48;14.70;99.90
8563;DHT22;16392;52.508;13.468;2023-03-23T10:19:20;14.90;99.90
8563;DHT22;16392;52.508;13.468;2023-03-23T10:21:54;14.80;99.90
8563;DHT22;16392;52.508;13.468;2023-03-23T10:24:23;14.70;1.00
8563;DHT22;16392;52.508;13.468;2023-03-23T10:26:54;14.80;99.90
8563;DHT22;16392;52.508;13.468;2023-03-23T10:29:24;14.90;1.00
8563;DHT22;16392;52.508;13.468;2023-03-23T10:31:54;14.80;1.00
8563;DHT22;16392;52.508;13.468;2023-03-23T10:34:24;14.90;1.00
8563;DHT22;16392;52.508;13.468;2023-03-23T10:36:59;15.10;99.90
8563;DHT22;16392;52.508;13.468;2023-03-23T10:39:28;15.20;97.00
8563;DHT22;16392;52.508;13.468;2023-03-23T10:41:56;15.40;99.90
8563;DHT22;16392;52.508;13.468;2023-03-23T10:44:27;15.50;1.00
8563;DHT22;16392;52.508;13.468;2023-03-23T10:46:56;15.30;1.00
8563;DHT22;16392;52.508;13.468;2023-03-23T10:49:24;15.60;1.00
8563;DHT22;16392;52.508;13.468;2023-03-23T10:51:55;15.60;99.90
8563;DHT22;16392;52.508;13.468;2023-03-23T10:54:25;15.40;1.00
8563;DHT22;16392;52.508;13.468;2023-03-23T10:56:52;15.40;1.00
8563;DHT22;16392;52.508;13.468;2023-03-23T10:59:20;15.30;1.00
8563;DHT22;16392;52.508;13.468;2023-03-23T11:01:48;15.40;99.90
8563;DHT22;16392;52.508;13.468;2023-03-23T11:04:16;15.30;99.90
8563;DHT22;16392;52.508;13.468;2023-03-23T11:06:43;15.00;1.00
8563;DHT22;16392;52.508;13.468;2023-03-23T11:09:11;15.20;1.00
8563;DHT22;16392;52.508;13.468;2023-03-23T11:11:39;15.20;1.00
8563;DHT22;16392;52.508;13.468;2023-03-23T11:14:13;15.20;99.90
8563;DHT22;16392;52.508;13.468;2023-03-23T11:16:43;15.30;99.90
8563;DHT22;16392;52.508;13.468;2023-03-23T11:19:14;15.30;1.00
8563;DHT22;16392;52.508;13.468;2023-03-23T11:21:44;15.40;1.00
8563;DHT22;16392;52.508;13.468;2023-03-23T11:24:12;15.40;99.90
8563;DHT22;16392;52.508;13.468;2023-03-23T11:26:39;15.40;1.00
8563;DHT22;16392;52.508;13.468;2023-03-23T11:29:09;15.50;1.00
8563;DHT22;16392;52.508;13.468;2023-03-23T11:31:38;15.50;19.90
8563;DHT22;16392;52.508;13.468;2023-03-23T11:34:10;15.70;1.00
8563;DHT22;16392;52.508;13.468;2023-03-23T11:36:38;15.80;99.90
8563;DHT22;16392;52.508;13.468;2023-03-23T11:39:18;16.10;99.90
8563;DHT22;16392;52.508;13.468;2023-03-23T11:41:46;16.10;1.00
8563;DHT22;16392;52.508;13.468;2023-03-23T11:44:13;16.10;1.00
8563;DHT22;16392;52.508;13.468;2023-03-23T11:46:42;15.90;1.00
8563;DHT22;16392;52.508;13.468;2023-03-23T11:49:15;16.00;99.90
8563;DHT22;16392;52.508;13.468;2023-03-23T11:51:45;16.30;99.90
8563;DHT22;16392;52.508;13.468;2023-03-23T11:54:15;16.60;1.00
8563;DHT22;16392;52.508;13.468;2023-03-23T11:56:43;16.80;99.90
8563;DHT22;16392;52.508;13.468;2023-03-23T11:59:12;16.60;99.90
8563;DHT22;16392;52.508;13.468;2023-03-23T12:01:50;16.70;1.00
8563;DHT22;16392;52.508;13.468;2023-03-23T12:04:27;16.70;1.00
8563;DHT22;16392;52.508;13.468;2023-03-23T12:06:58;16.60;1.00
8563;DHT22;16392;52.508;13.468;2023-03-23T12:09:33;16.70;1.00
8563;DHT22;16392;52.508;13.468;2023-03-23T12:12:05;16.70;1.00
8563;DHT22;16392;52.508;13.468;2023-03-23T12:14:33;16.70;99.90
8563;DHT22;16392;52.508;13.468;2023-03-23T12:17:07;16.60;1.00
8563;DHT22;16392;52.508;13.468;2023-03-23T12:19:42;16.70;1.00
8563;DHT22;16392;52.508;13.468;2023-03-23T12:22:16;16.90;1.00
8563;DHT22;16392;52.508;13.468;2023-03-23T12:24:52;16.60;99.90
8563;DHT22;16392;52.508;13.468;2023-03-23T12:27:23;16.40;99.90
8563;DHT22;16392;52.508;13.468;2023-03-23T12:29:58;16.30;99.90
8563;DHT22;16392;52.508;13.468;2023-03-23T12:32:40;16.30;99.90
8563;DHT22;16392;52.508;13.468;2023-03-23T12:35:17;16.50;1.00
8563;DHT22;16392;52.508;13.468;2023-03-23T12:37:50;16.50;99.90
8563;DHT22;16392;52.508;13.468;2023-03-23T12:40:23;16.20;99.90
8563;DHT22;16392;52.508;13.468;2023-03-23T12:42:53;16.10;1.00
8563;DHT22;16392;52.508;13.468;2023-03-23T12:45:23;16.20;1.00
8563;DHT22;16392;52.508;13.468;2023-03-23T12:47:53;16.30;99.90
8563;DHT22;16392;52.508;13.468;2023-03-23T12:50:23;16.20;99.90
8563;DHT22;16392;52.508;13.468;2023-03-23T12:52:52;16.20;99.90
8563;DHT22;16392;52.508;13.468;2023-03-23T12:55:21;16.30;99.90
8563;DHT22;16392;52.508;13.468;2023-03-23T12:57:50;16.50;99.90
8563;DHT22;16392;52.508;13.468;2023-03-23T13:00:20;16.50;99.90
8563;DHT22;16392;52.508;13.468;2023-03-23T13:02:51;16.40;99.90
8563;DHT22;16392;52.508;13.468;2023-03-23T13:05:28;16.60;72.20
8563;DHT22;16392;52.508;13.468;2023-03-23T13:07:56;17.00;1.00
8563;DHT22;16392;52.508;13.468;2023-03-23T13:10:26;17.00;1.00
8563;DHT22;16392;52.508;13.468;2023-03-23T13:12:54;17.30;1.00
8563;DHT22;16392;52.508;13.468;2023-03-23T13:15:25;17.80;1.00
8563;DHT22;16392;52.508;13.468;2023-03-23T13:17:54;17.80;1.00
8563;DHT22;16392;52.508;13.468;2023-03-23T13:20:34;17.90;99.90
8563;DHT22;16392;52.508;13.468;2023-03-23T13:23:02;17.50;1.00
8563;DHT22;16392;52.508;13.468;2023-03-23T13:25:38;17.80;1.00
8563;DHT22;16392;52.508;13.468;2023-03-23T13:28:12;18.00;99.90
8563;DHT22;16392;52.508;13.468;2023-03-23T13:30:40;17.90;99.90
8563;DHT22;16392;52.508;13.468;2023-03-23T13:33:11;17.50;99.90
8563;DHT22;16392;52.508;13.468;2023-03-23T13:35:41;17.30;1.00
8563;DHT22;16392;52.508;13.468;2023-03-23T13:38:12;17.40;1.00
8563;DHT22;16392;52.508;13.468;2023-03-23T13:40:41;17.80;99.90
8563;DHT22;16392;52.508;13.468;2023-03-23T13:43:08;17.90;99.90
8563;DHT22;16392;52.508;13.468;2023-03-23T13:45:36;17.80;99.90
8563;DHT22;16392;52.508;13.468;2023-03-23T13:48:17;18.00;99.90
8563;DHT22;16392;52.508;13.468;2023-03-23T13:50:50;18.10;99.90
8563;DHT22;16392;52.508;13.468;2023-03-23T13:53:21;17.90;99.90
8563;DHT22;16392;52.508;13.468;2023-03-23T13:55:49;17.40;99.90
8563;DHT22;16392;52.508;13.468;2023-03-23T13:58:22;17.20;99.90
8563;DHT22;16392;52.508;13.468;2023-03-23T14:01:00;17.20;99.90
8563;DHT22;16392;52.508;13.468;2023-03-23T14:03:32;17.30;99.90
8563;DHT22;16392;52.508;13.468;2023-03-23T14:06:03;17.80;99.90
8563;DHT22;16392;52.508;13.468;2023-03-23T14:08:37;18.00;99.90
8563;DHT22;16392;52.508;13.468;2023-03-23T14:11:09;18.10;99.90
8563;DHT22;16392;52.508;13.468;2023-03-23T14:13:38;17.80;93.80
8563;DHT22;16392;52.508;13.468;2023-03-23T14:16:13;17.90;99.90
8563;DHT22;16392;52.508;13.468;2023-03-23T14:18:41;18.30;1.00
8563;DHT22;16392;52.508;13.468;2023-03-23T14:21:15;18.10;1.00
8563;DHT22;16392;52.508;13.468;2023-03-23T14:23:41;18.20;1.00
8563;DHT22;16392;52.508;13.468;2023-03-23T14:26:09;18.20;1.00
8563;DHT22;16392;52.508;13.468;2023-03-23T14:28:38;18.00;1.00
8563;DHT22;16392;52.508;13.468;2023-03-23T14:31:05;17.50;1.00
8563;DHT22;16392;52.508;13.468;2023-03-23T14:33:38;17.50;28.40
8563;DHT22;16392;52.508;13.468;2023-03-23T14:36:06;17.40;38.60
8563;DHT22;16392;52.508;13.468;2023-03-23T14:38:34;17.20;84.20
8563;DHT22;16392;52.508;13.468;2023-03-23T14:41:01;17.10;99.90
8563;DHT22;16392;52.508;13.468;2023-03-23T14:43:28;17.10;99.90
8563;DHT22;16392;52.508;13.468;2023-03-23T14:45:55;16.90;99.90
8563;DHT22;16392;52.508;13.468;2023-03-23T14:48:22;16.80;99.90
8563;DHT22;16392;52.508;13.468;2023-03-23T14:50:49;16.70;99.90
8563;DHT22;16392;52.508;13.468;2023-03-23T14:53:18;16.60;99.90
8563;DHT22;16392;52.508;13.468;2023-03-23T14:55:47;16.50;99.90
8563;DHT22;16392;52.508;13.468;2023-03-23T14:58:17;16.40;99.90
8563;DHT22;16392;52.508;13.468;2023-03-23T15:00:45;16.30;99.90
8563;DHT22;16392;52.508;13.468;2023-03-23T15:03:14;16.10;1.00
8563;DHT22;16392;52.508;13.468;2023-03-23T15:05:42;16.00;1.00
8563;DHT22;16392;52.508;13.468;2023-03-23T15:08:11;15.90;1.00
8563;DHT22;16392;52.508;13.468;2023-03-23T15:10:39;15.90;1.00
8563;DHT22;16392;52.508;13.468;2023-03-23T15:13:09;16.10;1.00
8563;DHT22;16392;52.508;13.468;2023-03-23T15:15:37;16.20;1.00
8563;DHT22;16392;52.508;13.468;2023-03-23T15:18:03;16.30;1.00
8563;DHT22;16392;52.508;13.468;2023-03-23T15:20:31;16.30;1.00
8563;DHT22;16392;52.508;13.468;2023-03-23T15:23:04;16.10;1.00
8563;DHT22;16392;52.508;13.468;2023-03-23T15:25:33;16.10;1.00
8563;DHT22;16392;52.508;13.468;2023-03-23T15:28:07;16.20;1.00
8563;DHT22;16392;52.508;13.468;2023-03-23T15:30:36;16.30;1.00
8563;DHT22;16392;52.508;13.468;2023-03-23T15:33:04;16.30;1.00
8563;DHT22;16392;52.508;13.468;2023-03-23T15:35:34;16.30;1.00
8563;DHT22;16392;52.508;13.468;2023-03-23T15:38:01;16.30;1.00
8563;DHT22;16392;52.508;13.468;2023-03-23T15:40:33;16.20;1.00
8563;DHT22;16392;52.508;13.468;2023-03-23T15:43:07;16.20;1.00
8563;DHT22;16392;52.508;13.468;2023-03-23T15:45:35;16.30;1.00
8563;DHT22;16392;52.508;13.468;2023-03-23T15:48:09;16.30;99.90